createdAt,value
2022-07-27T00:01:30.523Z,20.00
2022-07-27T00:06:34.091Z,19.94
2022-07-27T00:11:37.037Z,19.86
2022-07-27T00:16:40.164Z,19.77
2022-07-27T00:21:46.274Z,19.71
2022-07-27T00:26:49.479Z,19.70
2022-07-27T00:31:52.409Z,19.71
2022-07-27T00:36:55.284Z,19.65
2022-07-27T00:41:58.391Z,19.60
2022-07-27T00:47:01.763Z,19.56
2022-07-27T00:52:04.779Z,19.54
2022-07-27T00:57:10.330Z,19.51
2022-07-27T01:02:19.281Z,19.50
2022-07-27T01:07:26.607Z,19.45
2022-07-27T01:12:32.300Z,19.41
2022-07-27T01:17:35.637Z,19.40
2022-07-27T01:22:38.561Z,19.33
2022-07-27T01:27:41.443Z,19.32
2022-07-27T01:32:44.292Z,19.35
2022-07-27T01:37:48.077Z,19.32
2022-07-27T01:42:51.705Z,19.25
2022-07-27T01:47:54.601Z,19.14
2022-07-27T01:52:58.113Z,19.08
2022-07-27T01:58:04.117Z,19.05
2022-07-27T02:03:08.971Z,19.04
2022-07-27T02:08:11.871Z,18.99
2022-07-27T02:13:22.341Z,18.94
2022-07-27T02:18:33.169Z,18.87
2022-07-27T02:23:40.809Z,18.82
2022-07-27T02:28:43.713Z,18.81
2022-07-27T02:33:46.617Z,18.85
2022-07-27T02:38:49.509Z,18.84
2022-07-27T02:43:52.456Z,18.80
2022-07-27T02:48:55.375Z,18.74
2022-07-27T02:53:58.249Z,18.71
2022-07-27T02:59:01.908Z,18.70
2022-07-27T03:04:05.040Z,18.69
2022-07-27T03:09:08.827Z,18.74
2022-07-27T03:14:11.955Z,18.76
2022-07-27T03:19:15.072Z,18.71
2022-07-27T03:24:18.448Z,18.67
2022-07-27T03:29:21.328Z,18.66
2022-07-27T03:34:24.164Z,18.66
2022-07-27T03:39:26.990Z,18.68
2022-07-27T03:44:30.013Z,18.71
2022-07-27T03:49:32.939Z,18.73
2022-07-27T03:54:35.880Z,18.73
2022-07-27T03:59:38.793Z,18.77
2022-07-27T04:04:41.858Z,18.79
2022-07-27T04:09:44.706Z,18.80
2022-07-27T04:14:50.092Z,18.75
2022-07-27T04:19:53.022Z,18.69
2022-07-27T04:24:55.907Z,18.62
2022-07-27T04:29:58.769Z,18.66
2022-07-27T04:35:01.809Z,18.70
2022-07-27T04:40:05.631Z,18.77
2022-07-27T04:45:08.769Z,18.84
2022-07-27T04:50:13.598Z,18.88
2022-07-27T04:55:16.729Z,18.91
2022-07-27T05:00:19.736Z,18.93
2022-07-27T05:05:22.654Z,18.94
2022-07-27T05:10:25.777Z,19.00
2022-07-27T05:15:28.873Z,19.05
2022-07-27T05:20:52.252Z,19.10
2022-07-27T05:25:55.201Z,19.11
2022-07-27T05:30:58.119Z,19.16
2022-07-27T05:36:01.106Z,19.25
2022-07-27T05:41:08.222Z,19.34
2022-07-27T05:46:11.228Z,19.47
2022-07-27T05:51:14.163Z,19.60
2022-07-27T05:56:17.089Z,19.69
2022-07-27T06:01:20.164Z,19.72
2022-07-27T06:06:41.826Z,19.74
2022-07-27T06:11:44.737Z,19.80
2022-07-27T06:16:47.661Z,19.90
2022-07-27T06:21:53.834Z,20.00
2022-07-27T06:26:57.499Z,20.14
2022-07-27T06:32:00.378Z,20.24
2022-07-27T06:37:04.365Z,20.31
2022-07-27T06:42:07.236Z,20.38
2022-07-27T06:47:10.297Z,20.48
2022-07-27T06:52:13.665Z,20.51
2022-07-27T06:57:16.985Z,20.55
2022-07-27T07:02:20.608Z,20.63
2022-07-27T07:07:23.475Z,20.69
2022-07-27T07:12:28.553Z,20.70
2022-07-27T07:17:31.558Z,20.71
2022-07-27T07:22:34.563Z,20.78
2022-07-27T07:27:37.609Z,20.90
2022-07-27T07:32:40.633Z,20.97
2022-07-27T07:37:43.937Z,21.04
2022-07-27T07:42:59.075Z,21.11
2022-07-27T07:48:02.219Z,21.19
2022-07-27T07:53:05.118Z,21.30
2022-07-27T07:58:08.067Z,21.46
2022-07-27T08:03:10.991Z,21.60
2022-07-27T08:08:14.261Z,21.73
2022-07-27T08:13:21.635Z,21.81
2022-07-27T08:18:25.276Z,21.81
2022-07-27T08:23:28.597Z,21.84
2022-07-27T08:28:36.888Z,21.90
2022-07-27T08:33:41.064Z,21.93
2022-07-27T08:38:43.994Z,22.03
2022-07-27T08:43:48.741Z,22.14
2022-07-27T08:48:52.930Z,22.24
2022-07-27T08:53:56.309Z,22.37
2022-07-27T08:58:59.433Z,22.55
2022-07-27T09:04:02.479Z,22.74
2022-07-27T09:09:05.290Z,22.95
2022-07-27T09:14:12.660Z,23.15
2022-07-27T09:19:16.768Z,23.24
2022-07-27T09:24:46.605Z,23.30
2022-07-27T09:29:45.113Z,23.42
2022-07-27T09:34:47.984Z,23.55
2022-07-27T09:39:50.864Z,23.66
2022-07-27T09:44:55.017Z,23.73
2022-07-27T09:50:21.142Z,23.85
2022-07-27T09:55:24.062Z,24.07
2022-07-27T10:00:27.438Z,24.28
2022-07-27T10:05:30.693Z,24.44
2022-07-27T10:10:33.590Z,24.52
2022-07-27T10:15:40.682Z,24.43
2022-07-27T10:20:47.498Z,24.45
2022-07-27T10:26:21.361Z,24.75
2022-07-27T10:31:30.468Z,25.05
2022-07-27T10:36:33.428Z,25.38
2022-07-27T10:41:41.556Z,25.73
2022-07-27T10:47:03.842Z,25.88
2022-07-27T10:52:07.153Z,25.84
2022-07-27T10:57:10.065Z,25.73
2022-07-27T11:02:14.982Z,25.63
2022-07-27T11:07:24.347Z,25.62
2022-07-27T11:12:31.094Z,25.70
2022-07-27T11:23:49.841Z,25.87
2022-07-27T11:28:27.988Z,26.10
2022-07-27T11:33:33.018Z,26.36
2022-07-27T11:38:46.445Z,26.42
2022-07-27T11:43:49.380Z,26.43
2022-07-27T11:49:11.844Z,26.55
2022-07-27T11:54:25.707Z,26.67
2022-07-27T11:59:33.096Z,26.78
2022-07-27T12:04:38.368Z,26.85
2022-07-27T12:09:52.609Z,26.85
2022-07-27T12:14:57.573Z,26.79
2022-07-27T12:20:14.669Z,26.69
2022-07-27T12:25:17.681Z,26.64
2022-07-27T12:30:29.440Z,26.68
2022-07-27T12:35:47.261Z,26.75
2022-07-27T12:41:00.459Z,26.77
2022-07-27T12:46:14.266Z,26.72
2022-07-27T12:51:24.021Z,26.71
2022-07-27T12:56:27.627Z,26.71
2022-07-27T13:01:30.860Z,26.79
2022-07-27T13:06:33.951Z,26.85
2022-07-27T13:11:36.828Z,26.94
2022-07-27T13:16:39.754Z,27.11
2022-07-27T13:21:42.726Z,27.25
2022-07-27T13:26:45.668Z,27.40
2022-07-27T13:31:53.653Z,27.58
2022-07-27T13:36:57.912Z,27.74
2022-07-27T13:42:00.808Z,27.86
2022-07-27T13:47:03.859Z,27.91
2022-07-27T13:52:09.056Z,27.88
2022-07-27T13:57:11.980Z,27.84
2022-07-27T14:02:14.996Z,27.76
2022-07-27T14:07:23.508Z,27.73
2022-07-27T14:12:29.271Z,27.77
2022-07-27T14:17:32.412Z,27.89
2022-07-27T14:22:35.416Z,27.97
2022-07-27T14:27:38.607Z,27.92
2022-07-27T14:32:41.815Z,27.85
2022-07-27T14:37:44.791Z,27.78
2022-07-27T14:42:47.613Z,27.71
2022-07-27T14:47:50.486Z,27.61
2022-07-27T14:52:53.353Z,27.54
2022-07-27T14:57:56.287Z,27.43
2022-07-27T15:02:59.174Z,27.25
2022-07-27T15:08:04.280Z,27.14
2022-07-27T15:13:07.955Z,27.07
2022-07-27T15:18:10.931Z,27.03
2022-07-27T15:23:14.694Z,27.00
2022-07-27T15:28:17.554Z,26.96
2022-07-27T15:33:20.499Z,26.93
2022-07-27T15:38:24.014Z,26.96
2022-07-27T15:43:26.905Z,26.92
2022-07-27T15:48:29.819Z,26.86
2022-07-27T15:53:32.839Z,26.75
2022-07-27T15:58:35.848Z,26.69
2022-07-27T16:03:39.664Z,26.68
2022-07-27T16:08:44.223Z,26.67
2022-07-27T16:13:48.424Z,26.69
2022-07-27T16:18:52.746Z,26.63
2022-07-27T16:23:57.196Z,26.55
2022-07-27T16:29:00.327Z,26.59
2022-07-27T16:34:09.646Z,26.64
2022-07-27T16:39:13.707Z,26.66
2022-07-27T16:44:18.540Z,26.62
2022-07-27T16:49:21.552Z,26.51
2022-07-27T16:54:39.522Z,26.36
2022-07-27T16:59:43.245Z,26.24
2022-07-27T17:04:46.178Z,26.10
2022-07-27T17:09:49.241Z,26.05
2022-07-27T17:14:52.254Z,26.06
2022-07-27T17:19:55.111Z,26.02
2022-07-27T17:24:57.972Z,25.99
2022-07-27T17:30:01.519Z,25.88
2022-07-27T17:35:05.338Z,25.79
2022-07-27T17:40:08.719Z,25.75
2022-07-27T17:45:11.900Z,25.70
2022-07-27T17:50:14.765Z,25.64
2022-07-27T17:55:17.614Z,25.56
2022-07-27T18:00:21.101Z,25.47
2022-07-27T18:05:24.249Z,25.33
2022-07-27T18:10:27.259Z,25.21
2022-07-27T18:15:50.815Z,25.08
2022-07-27T18:20:56.432Z,24.98
2022-07-27T18:26:00.187Z,24.90
2022-07-27T18:31:03.852Z,24.84
2022-07-27T18:36:07.836Z,24.78
2022-07-27T18:41:12.572Z,24.72
2022-07-27T18:46:17.542Z,24.61
2022-07-27T18:51:20.485Z,24.49
2022-07-27T18:56:23.446Z,24.39
2022-07-27T19:01:26.893Z,24.26
2022-07-27T19:06:29.769Z,24.17
2022-07-27T19:11:32.678Z,24.03
2022-07-27T19:16:35.893Z,23.88
2022-07-27T19:21:38.829Z,23.73
2022-07-27T19:26:42.537Z,23.58
2022-07-27T19:31:45.998Z,23.46
2022-07-27T19:36:49.059Z,23.36
2022-07-27T19:41:53.422Z,23.34
2022-07-27T19:46:58.083Z,23.24
2022-07-27T19:52:03.092Z,23.17
2022-07-27T19:57:07.990Z,23.08
2022-07-27T20:02:10.945Z,22.98
2022-07-27T20:07:13.876Z,22.90
2022-07-27T20:12:16.869Z,22.84
2022-07-27T20:17:19.783Z,22.78
2022-07-27T20:22:22.677Z,22.74
2022-07-27T20:27:25.872Z,22.66
2022-07-27T20:32:28.730Z,22.65
2022-07-27T20:37:32.530Z,22.61
2022-07-27T20:42:35.391Z,22.59
2022-07-27T20:47:43.433Z,22.56
2022-07-27T20:52:46.314Z,22.51
2022-07-27T20:57:49.352Z,22.46
2022-07-27T21:02:52.367Z,22.44
2022-07-27T21:07:56.228Z,22.44
2022-07-27T21:12:59.014Z,22.45
2022-07-27T21:18:02.738Z,22.44
2022-07-27T21:23:38.076Z,22.43
2022-07-27T21:28:41.292Z,22.39
2022-07-27T21:33:45.097Z,22.36
2022-07-27T21:38:48.083Z,22.32
2022-07-27T21:43:51.108Z,22.31
2022-07-27T21:48:54.078Z,22.30
2022-07-27T21:53:57.123Z,22.29
2022-07-27T21:59:00.106Z,22.30
2022-07-27T22:04:03.239Z,22.28
2022-07-27T22:09:06.235Z,22.26
2022-07-27T22:14:09.125Z,22.24
2022-07-27T22:19:12.111Z,22.22
2022-07-27T22:24:15.737Z,22.20
2022-07-27T22:29:18.973Z,22.19
2022-07-27T22:34:21.833Z,22.17
2022-07-27T22:39:24.877Z,22.14
2022-07-27T22:44:27.724Z,22.10
2022-07-27T22:49:30.672Z,22.04
2022-07-27T22:54:36.637Z,21.98
2022-07-27T22:59:39.569Z,21.90
2022-07-27T23:04:42.701Z,21.82
2022-07-27T23:09:45.544Z,21.77
2022-07-27T23:14:49.276Z,21.69
2022-07-27T23:19:52.310Z,21.61
2022-07-27T23:24:55.146Z,21.58
2022-07-27T23:29:59.403Z,21.60
2022-07-27T23:35:02.492Z,21.56
2022-07-27T23:40:06.468Z,21.55
2022-07-27T23:45:09.660Z,21.52
2022-07-27T23:50:12.722Z,21.44
2022-07-27T23:55:15.603Z,21.36
